Time;durP1;ratioP1;P1;durP2;ratioP2;P2;SDS_P1;SDS_P2;PMS_P1;PMS_P2;Temp;Humidity;BMP_temperature;BMP_pressure;BME280_temperature;BME280_humidity;BME280_pressure;Samples;Min_cycle;Max_cycle;Signal;HPM_P1;HPM_P2
2022/01/16 00:01:02;;;;;;;83.00;23.02;;;2.20;99.90;;;;;;5095496;28;20130;-72
2022/01/16 00:06:13;;;;;;;83.95;22.67;;;2.20;99.90;;;;;;5113797;28;20047;-72
2022/01/16 00:08:39;;;;;;;83.95;23.13;;;2.20;99.90;;;;;;5113327;28;20055;-72
2022/01/16 00:11:05;;;;;;;83.47;20.30;;;2.20;99.90;;;;;;5095784;28;20438;-72
2022/01/16 00:13:31;;;;;;;90.85;24.20;;;2.20;99.90;;;;;;5113679;28;20097;-72
2022/01/16 00:15:57;;;;;;;90.03;22.17;;;2.20;99.90;;;;;;5096089;28;20036;-72
2022/01/16 00:18:26;;;;;;;96.28;24.38;;;2.30;99.90;;;;;;5095605;28;20479;-73
2022/01/16 00:20:52;;;;;;;89.47;21.52;;;2.20;99.90;;;;;;5113176;28;20066;-73
2022/01/16 00:23:24;;;;;;;92.28;23.52;;;2.20;99.90;;;;;;5113243;28;20044;-73
2022/01/16 00:25:52;;;;;;;99.53;26.20;;;2.00;99.90;;;;;;5113216;28;20069;-72
2022/01/16 00:28:19;;;;;;;84.40;21.40;;;2.10;99.90;;;;;;5113297;28;20154;-73
2022/01/16 00:30:46;;;;;;;86.07;22.42;;;2.20;99.90;;;;;;5095170;28;20131;-73
2022/01/16 00:33:12;;;;;;;88.03;21.83;;;2.20;99.90;;;;;;5113336;28;20119;-74
2022/01/16 00:35:37;;;;;;;92.88;26.00;;;2.20;99.90;;;;;;5112994;28;20130;-75
2022/01/16 00:38:04;;;;;;;93.57;23.25;;;2.10;99.90;;;;;;5113263;28;20048;-73
2022/01/16 00:40:30;;;;;;;98.57;24.55;;;2.00;99.90;;;;;;5111735;28;20099;-72
2022/01/16 00:42:57;;;;;;;92.45;23.42;;;2.00;99.90;;;;;;5094880;28;20122;-72
2022/01/16 00:45:24;;;;;;;88.72;22.15;;;2.00;99.90;;;;;;5078483;28;20449;-72
2022/01/16 00:47:49;;;;;;;105.38;29.33;;;2.00;99.90;;;;;;5111798;28;20189;-74
2022/01/16 00:50:15;;;;;;;82.30;21.63;;;2.00;99.90;;;;;;5094719;28;20510;-74
2022/01/16 00:52:41;;;;;;;84.55;23.63;;;2.00;99.90;;;;;;5113556;28;20059;-73
2022/01/16 00:55:07;;;;;;;89.55;23.70;;;2.10;99.90;;;;;;5111604;28;20126;-72
2022/01/16 00:57:33;;;;;;;88.88;22.67;;;2.00;99.90;;;;;;5094697;28;20040;-72
2022/01/16 00:59:59;;;;;;;92.03;23.63;;;2.00;99.90;;;;;;5112772;28;20113;-72
2022/01/16 01:02:25;;;;;;;89.55;23.38;;;2.00;99.90;;;;;;5112758;28;20040;-72
2022/01/16 01:04:51;;;;;;;95.80;24.08;;;1.90;99.90;;;;;;5094420;28;20040;-72
2022/01/16 01:07:17;;;;;;;85.25;21.75;;;1.90;99.90;;;;;;5113393;28;20043;-72
2022/01/16 01:09:43;;;;;;;87.05;22.48;;;1.90;99.90;;;;;;5111519;28;20076;-72
2022/01/16 01:12:12;;;;;;;86.55;22.65;;;1.80;99.90;;;;;;5112481;28;20138;-72
2022/01/16 01:14:52;;;;;;;88.20;21.98;;;1.80;99.90;;;;;;5113055;28;20081;-71
2022/01/16 01:17:23;;;;;;;94.05;22.52;;;1.80;99.90;;;;;;5094231;28;20047;-72
2022/01/16 01:19:49;;;;;;;65.30;16.48;;;1.90;99.90;;;;;;5116135;28;20526;-73
2022/01/16 01:22:15;;;;;;;88.40;22.55;;;1.90;99.90;;;;;;5081462;28;20148;-72
2022/01/16 01:24:41;;;;;;;93.75;22.67;;;1.90;99.90;;;;;;5099233;28;20127;-72
2022/01/16 01:27:20;;;;;;;84.95;21.63;;;1.90;99.90;;;;;;5098303;28;20048;-72
2022/01/16 01:29:54;;;;;;;95.22;22.25;;;1.90;99.90;;;;;;5116686;28;20467;-72
2022/01/16 01:32:20;;;;;;;94.80;21.95;;;1.90;99.90;;;;;;5116746;28;20086;-72
2022/01/16 01:34:46;;;;;;;93.82;22.65;;;1.90;99.90;;;;;;5098448;28;20079;-72
2022/01/16 01:37:11;;;;;;;95.90;23.70;;;1.90;99.90;;;;;;5116867;28;20051;-72
2022/01/16 01:39:37;;;;;;;87.35;22.27;;;1.90;99.90;;;;;;5117210;28;20452;-72
2022/01/16 01:42:10;;;;;;;99.18;23.08;;;1.90;99.90;;;;;;5117750;28;20047;-71
2022/01/16 01:52:52;;;;;;;101.93;25.08;;;1.90;99.90;;;;;;5116641;28;20058;-77
2022/01/16 01:55:18;;;;;;;105.75;25.77;;;1.90;99.90;;;;;;5116486;28;20047;-77
2022/01/16 01:57:44;;;;;;;101.32;23.85;;;1.90;99.90;;;;;;5116454;28;20058;-78
2022/01/16 02:00:17;;;;;;;103.25;22.52;;;1.90;99.90;;;;;;5116900;28;20048;-77
2022/01/16 02:05:28;;;;;;;108.35;26.20;;;2.00;99.90;;;;;;5098000;28;20051;-77
2022/01/16 02:07:54;;;;;;;107.72;26.38;;;2.00;99.90;;;;;;5098588;28;20048;-77
2022/01/16 02:10:20;;;;;;;113.47;25.63;;;2.10;99.90;;;;;;5097681;28;20391;-78
2022/01/16 02:12:49;;;;;;;111.95;25.38;;;2.00;99.90;;;;;;5080908;28;20039;-78
2022/01/16 02:15:31;;;;;;;120.05;26.40;;;2.00;99.90;;;;;;5116744;28;20146;-77
2022/01/16 02:34:39;;;;;;;105.18;24.50;;;2.00;99.90;;;;;;5070197;28;20101;-77
2022/01/16 02:37:09;;;;;;;108.82;23.77;;;2.10;99.90;;;;;;5116605;28;20048;-77
2022/01/16 02:39:38;;;;;;;112.72;26.95;;;2.10;99.90;;;;;;5115903;28;20050;-76
2022/01/16 02:42:06;;;;;;;116.60;27.25;;;2.10;99.90;;;;;;5079895;28;20063;-77
2022/01/16 02:44:46;;;;;;;106.05;25.30;;;2.10;99.90;;;;;;5115373;28;20511;-76
2022/01/16 02:47:14;;;;;;;139.77;28.77;;;2.20;99.90;;;;;;5115525;28;20085;-78
2022/01/16 02:49:41;;;;;;;133.55;26.13;;;2.10;99.90;;;;;;5115427;28;20373;-77
2022/01/16 02:52:08;;;;;;;121.63;26.30;;;2.10;99.90;;;;;;5115308;28;20392;-76
2022/01/16 02:54:37;;;;;;;118.50;27.13;;;2.10;99.90;;;;;;5116018;28;20085;-76
2022/01/16 02:57:05;;;;;;;131.43;26.48;;;2.10;99.90;;;;;;5097154;28;20051;-76
2022/01/16 02:59:31;;;;;;;125.97;27.83;;;2.20;99.90;;;;;;5096931;28;20051;-76
2022/01/16 03:01:57;;;;;;;120.50;26.45;;;2.10;99.90;;;;;;5097623;28;20085;-78
2022/01/16 03:04:23;;;;;;;128.43;26.52;;;2.10;99.90;;;;;;5097139;28;20043;-77
2022/01/16 03:06:49;;;;;;;127.93;26.38;;;2.20;99.90;;;;;;5097025;28;20050;-78
2022/01/16 03:09:16;;;;;;;121.65;26.70;;;2.20;99.90;;;;;;5080694;28;20146;-78
2022/01/16 03:11:48;;;;;;;124.00;26.20;;;2.20;99.90;;;;;;5115158;28;20052;-77
2022/01/16 03:14:19;;;;;;;128.02;26.00;;;2.20;99.90;;;;;;5115649;28;20050;-78
2022/01/16 03:16:49;;;;;;;126.82;27.65;;;2.20;99.90;;;;;;5097181;28;20150;-78
2022/01/16 03:22:03;;;;;;;119.47;26.65;;;2.20;99.90;;;;;;5097242;28;20138;-76
2022/01/16 03:24:33;;;;;;;122.25;27.08;;;2.20;99.90;;;;;;5114953;28;20039;-81
2022/01/16 03:27:05;;;;;;;129.43;26.75;;;2.30;99.90;;;;;;5096959;28;20126;-77
2022/01/16 03:29:31;;;;;;;133.43;27.48;;;2.40;99.90;;;;;;5096915;28;20035;-78
2022/01/16 03:31:58;;;;;;;123.00;27.40;;;2.30;99.90;;;;;;5114644;28;20382;-77
2022/01/16 03:34:24;;;;;;;121.97;25.50;;;2.40;99.90;;;;;;5114454;28;20043;-79
2022/01/16 03:36:50;;;;;;;130.05;27.15;;;2.40;99.90;;;;;;5114739;28;20039;-76
2022/01/16 03:39:17;;;;;;;122.03;26.20;;;2.30;99.90;;;;;;5099225;28;20395;-78
2022/01/16 03:41:42;;;;;;;114.32;25.95;;;2.40;99.90;;;;;;5116461;28;20047;-77
2022/01/16 03:44:08;;;;;;;125.63;28.00;;;2.30;99.90;;;;;;5098407;28;20559;-78
2022/01/16 03:46:40;;;;;;;150.98;31.00;;;2.30;99.90;;;;;;5082682;28;20051;-77
2022/01/16 03:49:14;;;;;;;112.53;26.35;;;2.40;99.90;;;;;;5080520;28;20043;-79
2022/01/16 03:51:41;;;;;;;130.50;28.40;;;2.30;99.90;;;;;;5099012;28;20047;-77
2022/01/16 03:54:09;;;;;;;120.38;26.10;;;2.40;99.90;;;;;;5080324;28;20039;-78
2022/01/16 03:56:35;;;;;;;107.78;26.08;;;2.40;99.90;;;;;;5099109;28;20399;-77
2022/01/16 03:59:01;;;;;;;119.28;26.75;;;2.40;99.90;;;;;;5117140;28;20054;-77
2022/01/16 04:01:27;;;;;;;116.60;28.80;;;2.40;99.90;;;;;;5098434;28;20103;-77
2022/01/16 04:03:54;;;;;;;132.55;29.90;;;2.40;99.90;;;;;;5096614;28;20047;-78
2022/01/16 04:06:20;;;;;;;105.80;25.00;;;2.50;99.90;;;;;;5097072;28;20047;-77
2022/01/16 04:08:50;;;;;;;127.40;27.33;;;2.50;99.90;;;;;;5096708;28;20116;-78
2022/01/16 04:11:16;;;;;;;112.63;26.85;;;2.50;99.90;;;;;;5114554;28;20121;-77
2022/01/16 04:13:50;;;;;;;114.72;26.60;;;2.50;99.90;;;;;;5082997;28;20107;-77
2022/01/16 04:16:16;;;;;;;130.68;28.98;;;2.50;99.90;;;;;;5118040;28;20043;-77
2022/01/16 04:18:42;;;;;;;119.95;27.25;;;2.50;99.90;;;;;;5117378;28;20120;-76
2022/01/16 04:21:08;;;;;;;126.97;27.20;;;2.60;99.90;;;;;;5101640;28;20051;-78
2022/01/16 04:23:34;;;;;;;121.07;26.45;;;2.60;99.90;;;;;;5096907;28;20502;-79
2022/01/16 04:26:00;;;;;;;120.82;25.70;;;2.60;99.90;;;;;;5096318;28;20043;-78
2022/01/16 04:28:25;;;;;;;126.38;29.67;;;2.60;99.90;;;;;;5106127;28;20048;-78
2022/01/16 04:30:52;;;;;;;135.73;28.58;;;2.60;99.90;;;;;;5091117;28;20051;-77
2022/01/16 04:33:19;;;;;;;125.03;27.40;;;2.60;99.90;;;;;;5080008;28;20229;-77
2022/01/16 04:35:44;;;;;;;120.45;29.17;;;2.60;99.90;;;;;;5076732;28;20063;-77
2022/01/16 04:38:10;;;;;;;120.50;26.98;;;2.60;99.90;;;;;;5078706;28;20052;-77
2022/01/16 04:40:44;;;;;;;109.97;26.63;;;2.70;99.90;;;;;;5075705;28;20048;-80
2022/01/16 04:45:59;;;;;;;116.32;27.73;;;2.70;99.90;;;;;;5111866;28;20460;-77
2022/01/16 04:48:25;;;;;;;111.40;27.25;;;2.70;99.90;;;;;;5077531;28;20048;-77
2022/01/16 04:50:51;;;;;;;122.38;28.55;;;2.70;99.90;;;;;;5110846;28;20430;-77
2022/01/16 04:53:17;;;;;;;112.47;26.95;;;2.70;99.90;;;;;;5107491;28;20171;-79
2022/01/16 04:55:43;;;;;;;115.50;27.33;;;2.70;99.90;;;;;;5110675;28;20175;-78
2022/01/16 04:58:09;;;;;;;108.57;28.23;;;2.70;99.90;;;;;;5074798;28;20109;-79
2022/01/16 05:00:35;;;;;;;102.20;23.48;;;2.80;99.90;;;;;;5090634;28;20048;-77
2022/01/16 05:03:01;;;;;;;105.97;26.95;;;2.70;99.90;;;;;;5106660;28;20245;-78
2022/01/16 05:05:27;;;;;;;105.57;26.02;;;2.80;99.90;;;;;;5073514;28;20080;-78
2022/01/16 05:07:53;;;;;;;102.72;26.52;;;2.80;99.90;;;;;;5073817;28;20044;-78
2022/01/16 05:10:19;;;;;;;112.40;26.45;;;2.80;99.90;;;;;;5088988;28;20041;-79
2022/01/16 05:12:49;;;;;;;121.03;27.25;;;2.80;99.90;;;;;;5073284;28;20421;-78
2022/01/16 05:18:01;;;;;;;120.45;27.92;;;2.90;99.90;;;;;;5103792;28;20052;-79
2022/01/16 05:20:26;;;;;;;114.15;26.02;;;2.90;99.90;;;;;;5073789;28;20095;-78
2022/01/16 05:22:52;;;;;;;109.85;27.27;;;2.90;99.90;;;;;;5088323;28;20075;-77
2022/01/16 05:25:18;;;;;;;123.18;30.42;;;2.90;99.90;;;;;;5071859;28;20048;-78
2022/01/16 05:27:44;;;;;;;112.70;26.77;;;2.90;99.90;;;;;;5105025;28;20374;-77
2022/01/16 05:30:11;;;;;;;116.30;28.60;;;3.00;99.90;;;;;;5072466;28;20053;-77
2022/01/16 05:32:37;;;;;;;113.47;28.97;;;2.90;99.90;;;;;;5071446;28;20078;-77
2022/01/16 05:35:03;;;;;;;118.25;27.80;;;2.90;99.90;;;;;;5088459;28;20374;-78
2022/01/16 05:37:29;;;;;;;120.38;27.92;;;2.90;99.90;;;;;;5072302;28;20374;-78
2022/01/16 05:39:55;;;;;;;115.00;27.13;;;2.90;99.90;;;;;;5104823;28;20054;-78
2022/01/16 05:42:21;;;;;;;120.50;29.23;;;3.00;99.90;;;;;;5070566;28;20045;-80
2022/01/16 05:44:46;;;;;;;127.72;30.80;;;3.00;99.90;;;;;;5088537;28;20053;-77
2022/01/16 05:47:13;;;;;;;122.30;29.13;;;3.00;99.90;;;;;;5070986;28;20432;-78
2022/01/16 05:49:40;;;;;;;114.22;28.40;;;3.00;99.90;;;;;;5087596;28;20052;-78
2022/01/16 05:52:07;;;;;;;132.15;30.58;;;3.00;99.90;;;;;;5103912;28;20109;-78
2022/01/16 05:54:33;;;;;;;124.50;29.02;;;3.00;99.90;;;;;;5071823;28;20045;-79
2022/01/16 05:56:59;;;;;;;119.25;27.58;;;3.00;99.90;;;;;;5104487;28;20052;-78
2022/01/16 05:59:25;;;;;;;109.13;26.00;;;3.00;99.90;;;;;;5071080;28;20098;-77
2022/01/16 06:01:50;;;;;;;129.90;30.23;;;3.00;99.90;;;;;;5070800;28;20072;-78
2022/01/16 06:04:16;;;;;;;141.45;33.67;;;3.10;99.90;;;;;;5072708;28;20036;-78
2022/01/16 06:06:42;;;;;;;126.40;26.95;;;3.00;99.90;;;;;;5075011;28;20045;-79
2022/01/16 06:09:08;;;;;;;127.45;27.90;;;3.10;99.90;;;;;;5078362;28;20048;-79
2022/01/16 06:11:33;;;;;;;133.77;29.55;;;3.10;99.90;;;;;;5077333;28;20480;-78
2022/01/16 06:13:59;;;;;;;130.48;29.02;;;3.10;99.90;;;;;;5078936;28;20063;-80
2022/01/16 06:16:25;;;;;;;127.53;29.10;;;3.10;99.90;;;;;;5079522;28;20092;-79
2022/01/16 06:18:53;;;;;;;115.20;27.33;;;3.10;99.90;;;;;;5076212;28;20095;-79
2022/01/16 06:21:19;;;;;;;123.93;28.73;;;3.10;99.90;;;;;;5113274;28;20052;-77
2022/01/16 06:23:44;;;;;;;127.78;28.65;;;3.10;99.90;;;;;;5108812;28;20174;-79
2022/01/16 06:26:10;;;;;;;132.27;28.92;;;3.10;99.90;;;;;;5112824;28;20449;-79
2022/01/16 06:28:36;;;;;;;121.15;27.25;;;3.10;99.90;;;;;;5113959;28;20051;-80
2022/01/16 06:31:02;;;;;;;123.05;29.88;;;3.20;99.90;;;;;;5098140;28;20341;-80
2022/01/16 06:33:28;;;;;;;119.30;26.93;;;3.20;99.90;;;;;;5097721;28;20077;-79
2022/01/16 06:35:54;;;;;;;130.23;26.95;;;3.20;99.90;;;;;;5097933;28;20128;-79
2022/01/16 06:38:20;;;;;;;142.80;31.55;;;3.20;99.90;;;;;;5115822;28;20059;-80
2022/01/16 06:40:46;;;;;;;127.85;26.92;;;3.20;99.90;;;;;;5097508;28;20146;-79
2022/01/16 06:43:11;;;;;;;152.50;33.63;;;3.20;99.90;;;;;;5115771;28;20122;-79
2022/01/16 06:45:37;;;;;;;138.52;28.85;;;3.20;99.90;;;;;;5097526;28;20517;-77
2022/01/16 06:48:03;;;;;;;129.63;29.02;;;3.20;99.90;;;;;;5116367;28;20437;-79
2022/01/16 06:50:29;;;;;;;126.38;27.42;;;3.30;99.90;;;;;;5115629;28;20112;-80
2022/01/16 06:52:54;;;;;;;110.40;26.80;;;3.30;99.90;;;;;;5097877;28;20049;-77
2022/01/16 06:55:20;;;;;;;143.05;30.55;;;3.30;99.90;;;;;;5115441;28;20051;-77
2022/01/16 06:57:46;;;;;;;132.20;28.90;;;3.30;99.90;;;;;;5096709;28;20107;-80
2022/01/16 07:00:12;;;;;;;147.45;33.78;;;3.20;99.90;;;;;;5115826;28;20052;-78
2022/01/16 07:02:38;;;;;;;116.10;28.20;;;3.30;99.90;;;;;;5115458;28;20059;-80
2022/01/16 07:05:05;;;;;;;115.22;27.27;;;3.30;99.90;;;;;;5115245;28;20039;-79
2022/01/16 07:07:31;;;;;;;130.83;30.40;;;3.30;99.90;;;;;;5080512;28;20051;-81
2022/01/16 07:09:57;;;;;;;137.57;31.25;;;3.30;99.90;;;;;;5097132;28;20395;-77
2022/01/16 07:12:22;;;;;;;118.63;27.17;;;3.40;99.90;;;;;;5115139;28;20052;-77
2022/01/16 07:14:48;;;;;;;121.18;28.70;;;3.40;99.90;;;;;;5114928;28;20051;-79
2022/01/16 07:17:14;;;;;;;135.55;30.63;;;3.40;99.90;;;;;;5078604;28;20044;-80
2022/01/16 07:19:40;;;;;;;110.45;27.00;;;3.40;99.90;;;;;;5114995;28;20166;-77
2022/01/16 07:22:06;;;;;;;127.68;27.98;;;3.40;99.90;;;;;;5115095;28;20096;-78
2022/01/16 07:24:32;;;;;;;124.38;30.05;;;3.50;99.90;;;;;;5114841;28;20379;-79
2022/01/16 07:27:00;;;;;;;139.10;31.58;;;3.50;99.90;;;;;;5096614;28;20465;-76
2022/01/16 07:29:30;;;;;;;126.07;29.90;;;3.50;99.90;;;;;;5079601;28;20076;-77
2022/01/16 07:31:56;;;;;;;126.72;30.17;;;3.50;99.90;;;;;;5113810;28;20141;-78
2022/01/16 07:34:22;;;;;;;132.13;30.13;;;3.50;99.90;;;;;;5080470;28;20043;-78
2022/01/16 07:36:48;;;;;;;133.68;31.08;;;3.50;99.90;;;;;;5114816;28;20403;-78
2022/01/16 07:39:14;;;;;;;118.00;29.07;;;3.50;99.90;;;;;;5114321;28;20426;-77
2022/01/16 07:41:40;;;;;;;138.30;30.58;;;3.50;99.90;;;;;;5114650;28;20282;-78
2022/01/16 07:44:06;;;;;;;132.50;29.67;;;3.60;99.90;;;;;;5099201;28;20177;-79
2022/01/16 07:46:32;;;;;;;96.72;24.92;;;3.60;99.90;;;;;;5097179;28;20071;-79
2022/01/16 07:48:57;;;;;;;109.93;26.92;;;3.70;99.90;;;;;;5114785;28;20047;-78
2022/01/16 07:51:25;;;;;;;121.15;29.65;;;3.70;99.90;;;;;;5080280;28;20058;-77
2022/01/16 07:53:52;;;;;;;124.82;28.98;;;3.70;99.90;;;;;;5080244;28;20192;-79
2022/01/16 07:56:23;;;;;;;102.93;25.55;;;3.70;99.90;;;;;;5098956;28;20048;-79
2022/01/16 07:58:49;;;;;;;122.32;28.52;;;3.70;99.90;;;;;;5067077;28;20141;-79
2022/01/16 08:01:15;;;;;;;122.68;29.42;;;3.70;99.90;;;;;;5084609;28;20480;-78
2022/01/16 08:03:41;;;;;;;120.07;31.40;;;3.70;99.90;;;;;;5101904;28;20081;-78
2022/01/16 08:06:07;;;;;;;125.47;30.38;;;3.80;99.90;;;;;;5097676;28;20112;-79
2022/01/16 08:08:33;;;;;;;116.32;28.00;;;3.80;99.90;;;;;;5080587;28;20384;-79
2022/01/16 08:10:58;;;;;;;119.85;30.75;;;3.90;99.90;;;;;;5114013;28;20043;-80
2022/01/16 08:13:24;;;;;;;118.80;28.17;;;3.90;99.90;;;;;;5114776;28;20411;-78
2022/01/16 08:15:50;;;;;;;110.80;28.80;;;4.00;99.90;;;;;;5096218;28;20047;-80
2022/01/16 08:18:16;;;;;;;116.65;29.02;;;4.00;99.90;;;;;;5079014;28;20054;-79
2022/01/16 08:20:42;;;;;;;128.65;32.45;;;3.90;99.90;;;;;;5112532;28;20044;-79
2022/01/16 08:23:08;;;;;;;117.32;29.35;;;3.90;99.90;;;;;;5095648;28;20087;-79
2022/01/16 08:25:34;;;;;;;107.95;28.50;;;3.90;99.90;;;;;;5097366;28;20100;-80
2022/01/16 08:27:59;;;;;;;139.65;32.45;;;4.00;99.90;;;;;;5111089;28;20056;-78
2022/01/16 08:30:25;;;;;;;105.18;28.90;;;4.00;99.90;;;;;;5090883;28;20059;-78
2022/01/16 08:32:52;;;;;;;103.68;28.75;;;4.00;99.90;;;;;;5090188;28;20051;-78
2022/01/16 08:35:18;;;;;;;123.70;31.55;;;4.00;99.90;;;;;;5106033;28;20084;-79
2022/01/16 08:37:44;;;;;;;116.50;29.88;;;4.00;99.90;;;;;;5078180;28;20148;-78
2022/01/16 08:40:11;;;;;;;118.63;32.17;;;4.10;99.90;;;;;;5083353;28;20097;-79
2022/01/16 08:42:40;;;;;;;119.18;31.88;;;4.10;99.90;;;;;;5110999;28;20056;-80
2022/01/16 08:45:07;;;;;;;110.57;29.60;;;4.10;99.90;;;;;;5095900;28;20115;-80
2022/01/16 08:47:33;;;;;;;;;;;4.10;99.90;;;;;;5077139;28;20445;-78
2022/01/16 08:49:59;;;;;;;115.43;29.85;;;4.20;99.90;;;;;;5077440;28;20016;-79
2022/01/16 08:52:26;;;;;;;111.32;28.55;;;4.20;99.90;;;;;;5076459;28;20050;-78
2022/01/16 08:54:52;;;;;;;;;;;4.20;99.90;;;;;;5094211;28;20104;-78
2022/01/16 08:57:18;;;;;;;116.82;28.35;;;4.30;99.90;;;;;;5076335;28;19971;-80
2022/01/16 08:59:48;;;;;;;101.13;27.58;;;4.40;99.90;;;;;;5092406;28;20051;-79
2022/01/16 09:02:14;;;;;;;106.72;26.70;;;4.30;99.90;;;;;;5075438;28;20545;-78
2022/01/16 09:04:40;;;;;;;96.70;27.92;;;4.40;99.90;;;;;;5105566;28;20119;-81
2022/01/16 09:07:05;;;;;;;102.13;28.45;;;4.50;99.90;;;;;;5071729;28;20045;-79
2022/01/16 09:09:31;;;;;;;102.20;28.52;;;4.50;99.90;;;;;;5071868;28;20522;-81
2022/01/16 09:11:57;;;;;;;106.63;29.33;;;4.50;99.90;;;;;;5105375;28;20365;-80
2022/01/16 09:14:23;;;;;;;94.10;27.60;;;4.60;99.90;;;;;;5106481;28;20402;-82
2022/01/16 09:16:49;;;;;;;89.75;27.25;;;4.70;99.90;;;;;;5071918;28;20454;-80
2022/01/16 09:19:15;;;;;;;97.90;27.58;;;4.70;99.90;;;;;;5105961;28;20044;-80
2022/01/16 09:21:41;;;;;;;99.35;28.38;;;4.80;99.90;;;;;;5105556;28;20048;-81
2022/01/16 09:24:07;;;;;;;93.05;26.83;;;4.80;99.90;;;;;;5071273;28;20094;-81
2022/01/16 09:26:33;;;;;;;97.35;27.33;;;4.90;99.90;;;;;;5089549;28;20045;-79
2022/01/16 09:28:59;;;;;;;88.82;27.60;;;5.00;99.90;;;;;;5111592;28;20360;-80
2022/01/16 09:31:25;;;;;;;96.53;28.20;;;5.00;99.90;;;;;;5113616;28;20157;-80
2022/01/16 09:33:51;;;;;;;89.25;26.73;;;5.00;99.90;;;;;;5095305;28;20450;-80
2022/01/16 09:36:16;;;;;;;94.50;26.48;;;5.10;99.90;;;;;;5111756;28;20123;-80
2022/01/16 09:38:43;;;;;;;85.93;28.33;;;5.10;99.90;;;;;;5078133;28;20139;-78
2022/01/16 09:41:09;;;;;;;88.93;27.70;;;5.10;99.90;;;;;;5117053;28;20043;-80
2022/01/16 09:43:35;;;;;;;87.85;27.55;;;5.10;99.90;;;;;;5117077;28;20395;-80
2022/01/16 09:46:02;;;;;;;81.32;27.30;;;5.20;99.90;;;;;;5099291;28;20467;-79
2022/01/16 09:48:28;;;;;;;88.15;27.48;;;5.20;99.90;;;;;;5117895;28;20159;-80
2022/01/16 09:50:54;;;;;;;90.53;28.63;;;5.30;99.90;;;;;;5098754;28;20467;-79
2022/01/16 09:53:22;;;;;;;88.68;28.00;;;5.30;99.90;;;;;;5099224;28;20138;-80
2022/01/16 09:55:48;;;;;;;84.70;26.67;;;5.30;99.90;;;;;;5081989;28;20074;-79
2022/01/16 09:58:14;;;;;;;81.65;26.88;;;5.30;99.90;;;;;;5098431;28;20058;-81
2022/01/16 10:00:39;;;;;;;76.53;27.38;;;5.30;99.90;;;;;;5099337;28;20043;-78
2022/01/16 10:03:05;;;;;;;81.70;26.25;;;5.30;99.90;;;;;;5082363;28;20086;-80
2022/01/16 10:05:35;;;;;;;81.18;28.00;;;5.30;99.90;;;;;;5099191;28;20051;-82
2022/01/16 10:08:04;;;;;;;72.38;25.10;;;5.40;99.90;;;;;;5116373;28;20050;-79
2022/01/16 10:10:33;;;;;;;74.10;24.65;;;5.40;99.90;;;;;;5116847;28;20101;-80
2022/01/16 10:13:07;;;;;;;79.47;25.83;;;5.50;99.90;;;;;;5116792;28;20086;-82
2022/01/16 10:15:34;;;;;;;80.60;27.25;;;5.40;99.90;;;;;;5098668;28;20058;-82
2022/01/16 10:18:05;;;;;;;83.88;28.05;;;5.50;99.90;;;;;;5099121;28;20047;-79
2022/01/16 10:20:43;;;;;;;77.57;26.05;;;5.50;99.90;;;;;;5116506;28;20043;-80
2022/01/16 10:23:17;;;;;;;71.28;24.67;;;5.50;99.90;;;;;;5117344;28;20160;-79
2022/01/16 10:25:47;;;;;;;73.40;24.80;;;5.60;99.90;;;;;;5098471;28;20044;-80
2022/01/16 10:28:20;;;;;;;68.95;24.90;;;5.60;99.90;;;;;;5081671;28;20184;-79
2022/01/16 10:30:51;;;;;;;68.20;24.25;;;5.60;99.90;;;;;;5118332;28;20051;-80
2022/01/16 10:33:20;;;;;;;60.92;21.90;;;5.70;99.90;;;;;;5120695;28;20395;-79
2022/01/16 10:35:47;;;;;;;63.88;23.52;;;5.80;99.90;;;;;;5118962;28;20035;-80
2022/01/16 10:38:17;;;;;;;;;;;5.80;99.90;;;;;;5083761;28;20189;-80
2022/01/16 10:40:50;;;;;;;59.80;20.60;;;5.80;99.90;;;;;;5082709;28;19919;-80
2022/01/16 10:43:21;;;;;;;57.28;20.38;;;5.90;99.90;;;;;;5099910;28;20406;-78
2022/01/16 10:45:51;;;;;;;51.33;19.17;;;5.90;99.90;;;;;;5120118;28;20047;-81
2022/01/16 10:48:24;;;;;;;51.22;18.95;;;6.00;99.90;;;;;;5100491;28;20048;-80
2022/01/16 10:50:51;;;;;;;51.40;16.80;;;6.00;99.90;;;;;;5101310;28;20058;-79
2022/01/16 10:53:23;;;;;;;47.53;17.00;;;6.10;99.90;;;;;;5099670;28;20100;-79
2022/01/16 10:55:52;;;;;;;48.80;16.70;;;6.10;99.90;;;;;;5118170;28;20069;-80
2022/01/16 10:58:26;;;;;;;47.53;15.88;;;6.10;99.90;;;;;;5099730;28;20056;-80
2022/01/16 11:01:03;;;;;;;46.40;16.67;;;6.10;99.90;;;;;;5100543;28;20103;-80
2022/01/16 11:03:38;;;;;;;44.03;16.20;;;6.20;99.90;;;;;;5124972;28;20040;-79
2022/01/16 11:06:04;;;;;;;39.53;14.75;;;6.20;99.90;;;;;;5122617;28;20043;-80
2022/01/16 11:08:30;;;;;;;39.55;15.05;;;6.20;99.90;;;;;;5101964;28;20101;-79
2022/01/16 11:10:56;;;;;;;41.97;14.52;;;6.20;99.90;;;;;;5082615;28;20047;-80
2022/01/16 11:13:30;;;;;;;44.92;15.30;;;6.20;99.90;;;;;;5120400;28;20035;-81
2022/01/16 11:15:59;;;;;;;43.05;14.35;;;6.30;99.90;;;;;;5099817;28;20113;-81
2022/01/16 11:18:26;;;;;;;39.70;14.20;;;6.30;99.90;;;;;;5118971;28;20143;-81
2022/01/16 11:21:13;;;;;;;41.72;13.95;;;6.30;99.90;;;;;;5117985;28;20083;-81
2022/01/16 11:26:37;;;;;;;33.80;10.77;;;6.30;99.90;;;;;;5051440;28;19923;-80
2022/01/16 11:29:04;;;;;;;32.60;12.27;;;6.40;99.90;;;;;;5082082;28;20059;-82
2022/01/16 11:31:30;;;;;;;36.92;11.65;;;6.40;99.90;;;;;;5081397;28;20062;-80
2022/01/16 11:33:56;;;;;;;27.95;12.10;;;6.40;99.90;;;;;;5115652;28;20061;-81
2022/01/16 11:36:28;;;;;;;30.35;12.18;;;6.40;99.90;;;;;;5115010;28;20055;-82
2022/01/16 11:38:55;;;;;;;34.08;12.60;;;6.40;99.90;;;;;;5097020;28;20494;-82
2022/01/16 11:41:30;;;;;;;31.35;11.85;;;6.40;99.90;;;;;;5097280;28;20082;-81
2022/01/16 11:43:58;;;;;;;31.63;12.65;;;6.40;99.90;;;;;;5080886;28;20073;-80
2022/01/16 11:46:30;;;;;;;34.75;10.98;;;6.40;99.90;;;;;;5117083;28;20055;-82
2022/01/16 11:48:58;;;;;;;29.33;11.18;;;6.40;99.90;;;;;;5083915;28;20433;-80
2022/01/16 11:51:37;;;;;;;29.02;11.45;;;6.40;99.90;;;;;;5098071;28;20086;-81
2022/01/16 11:54:22;;;;;;;29.45;11.45;;;6.40;99.90;;;;;;5097229;28;20055;-83
2022/01/16 11:57:00;;;;;;;28.08;11.85;;;6.40;99.90;;;;;;5114513;28;20130;-82
2022/01/16 11:59:40;;;;;;;34.47;12.13;;;6.40;99.90;;;;;;5079648;28;20047;-80
2022/01/16 12:02:09;;;;;;;37.17;11.48;;;6.40;99.90;;;;;;5095190;28;20051;-81
2022/01/16 12:04:36;;;;;;;29.92;11.57;;;6.40;99.90;;;;;;5114021;28;20122;-81
2022/01/16 12:07:15;;;;;;;29.17;12.10;;;6.50;99.90;;;;;;5080090;28;20043;-82
2022/01/16 12:12:12;;;;;;;30.95;11.10;;;6.50;99.90;;;;;;5114615;28;20117;-82
2022/01/16 12:14:49;;;;;;;35.33;11.20;;;6.50;99.90;;;;;;5095837;28;20077;-82
2022/01/16 12:17:40;;;;;;;31.40;10.93;;;6.50;99.90;;;;;;5114674;28;20448;-82
2022/01/16 12:22:47;;;;;;;29.00;10.32;;;6.50;99.90;;;;;;5095971;28;20102;-79
2022/01/16 12:25:20;;;;;;;31.60;10.95;;;6.60;99.90;;;;;;5078973;28;20044;-81
2022/01/16 12:27:52;;;;;;;23.63;10.18;;;6.60;99.90;;;;;;5115319;28;20456;-80
2022/01/16 12:30:43;;;;;;;25.23;9.90;;;6.70;99.90;;;;;;5086972;28;20094;-81
2022/01/16 12:33:10;;;;;;;25.15;10.75;;;6.70;99.90;;;;;;5120805;28;20108;-81
2022/01/16 12:35:39;;;;;;;34.88;10.70;;;6.70;99.90;;;;;;5114555;28;20110;-81
2022/01/16 12:38:22;;;;;;;24.85;9.95;;;6.80;99.90;;;;;;5078922;28;20337;-82
2022/01/16 12:41:09;;;;;;;29.98;11.07;;;6.80;99.90;;;;;;5095962;28;20050;-83
2022/01/16 12:43:43;;;;;;;32.58;10.82;;;6.80;99.90;;;;;;5078845;28;20043;-82
2022/01/16 12:46:13;;;;;;;28.88;10.30;;;6.90;99.90;;;;;;5112917;28;20131;-82
2022/01/16 12:48:51;;;;;;;25.50;9.88;;;6.80;99.90;;;;;;5095895;28;20050;-83
2022/01/16 12:51:19;;;;;;;25.48;9.30;;;6.90;99.90;;;;;;5079665;28;20047;-83
2022/01/16 12:53:56;;;;;;;24.27;10.27;;;6.80;99.90;;;;;;5115755;28;20101;-82
2022/01/16 12:56:28;;;;;;;33.00;10.10;;;6.90;99.90;;;;;;5116915;28;20434;-83
2022/01/16 12:59:10;;;;;;;23.92;9.95;;;6.90;99.90;;;;;;5116321;28;20047;-81
2022/01/16 13:01:37;;;;;;;27.92;9.27;;;6.90;99.90;;;;;;5096731;28;20047;-81
2022/01/16 13:04:33;;;;;;;26.45;9.38;;;6.90;99.90;;;;;;5095553;28;20081;-80
2022/01/16 13:07:08;;;;;;;26.38;9.38;;;6.90;99.90;;;;;;5096998;28;20052;-81
2022/01/16 13:09:38;;;;;;;25.38;9.68;;;6.90;99.90;;;;;;5113331;28;20063;-81
2022/01/16 13:12:12;;;;;;;23.25;9.90;;;6.90;99.90;;;;;;5079445;28;20557;-81
2022/01/16 13:14:42;;;;;;;30.98;10.18;;;6.90;99.90;;;;;;5096875;28;20080;-81
2022/01/16 13:17:12;;;;;;;27.73;10.32;;;6.90;99.90;;;;;;5100802;28;20185;-83
2022/01/16 13:22:13;;;;;;;23.48;10.00;;;7.00;99.90;;;;;;5099877;28;20051;-81
2022/01/16 13:24:49;;;;;;;31.98;11.00;;;6.90;99.90;;;;;;5116323;28;20112;-83
2022/01/16 13:27:27;;;;;;;27.65;11.30;;;6.90;99.90;;;;;;5117528;28;20059;-83